Terminal Aerodrome Forecast
Issued by NWS Sioux Falls, SD

Home | Current Version | Previous Version | Graphics & Text | Print | Product List | Glossary Off
Versions: 1 2 3 4 5 6 7 8 9 10 11 12 13 14 15 16 17 18 19 20 21 22 23 24 25 26 27 28 29 30 31 32

000
FTUS43 KFSD 261120
TAFSUX
TAF
KSUX 261120Z 2612/2712 35022G30KT 1SM -SN BLSN BKN009
      TEMPO 2612/2614 4SM -SN SCT009 OVC025
     FM261400 34022G30KT 5SM -SN BKN020
     FM261600 34022G30KT P6SM BKN025
     FM262300 34015G22KT P6SM SCT030
     FM270100 33010KT P6SM SCT040
     FM270700 34005KT P6SM SCT040=

USA.gov is the U.S. government's official web portal to all federal, state and local government web resources and services.